sensor_id;sensor_type;location;lat;lon;timestamp;temperature;humidity
22676;DHT22;12521;43.310;21.876;2024-03-23T01:13:12;7.2;96.0
22676;DHT22;12521;43.310;21.876;2024-03-23T01:17:49;7.2;96.0
22676;DHT22;12521;43.310;21.876;2024-03-23T01:22:26;7.2;96.0
22676;DHT22;12521;43.310;21.876;2024-03-23T01:27:04;7.2;96.0
22676;DHT22;12521;43.310;21.876;2024-03-23T01:31:41;7.1;96.0
22676;DHT22;12521;43.310;21.876;2024-03-23T01:36:18;7.1;96.0
22676;DHT22;12521;43.310;21.876;2024-03-23T01:40:58;7.1;96.0
22676;DHT22;12521;43.310;21.876;2024-03-23T01:45:37;7.0;96.0
22676;DHT22;12521;43.310;21.876;2024-03-23T01:50:15;7.0;96.0
22676;DHT22;12521;43.310;21.876;2024-03-23T01:54:53;7.0;96.0
22676;DHT22;12521;43.310;21.876;2024-03-23T01:59:31;7.0;96.0
22676;DHT22;12521;43.310;21.876;2024-03-23T02:04:08;6.9;96.0
22676;DHT22;12521;43.310;21.876;2024-03-23T02:08:45;6.9;96.0
22676;DHT22;12521;43.310;21.876;2024-03-23T02:13:22;6.9;96.0
22676;DHT22;12521;43.310;21.876;2024-03-23T02:17:58;6.9;96.0
22676;DHT22;12521;43.310;21.876;2024-03-23T03:13:21;6.3;96.0
22676;DHT22;12521;43.310;21.876;2024-03-23T03:17:58;6.3;96.0
22676;DHT22;12521;43.310;21.876;2024-03-23T03:22:35;6.3;96.0
22676;DHT22;12521;43.310;21.876;2024-03-23T03:27:12;6.3;96.0
22676;DHT22;12521;43.310;21.876;2024-03-23T03:31:49;6.3;96.0
22676;DHT22;12521;43.310;21.876;2024-03-23T03:36:27;6.3;96.0
22676;DHT22;12521;43.310;21.876;2024-03-23T03:41:05;6.3;96.0
22676;DHT22;12521;43.310;21.876;2024-03-23T04:32:07;5.4;96.0
22676;DHT22;12521;43.310;21.876;2024-03-23T04:36:44;5.4;96.0
22676;DHT22;12521;43.310;21.876;2024-03-23T04:41:20;5.4;96.0
22676;DHT22;12521;43.310;21.876;2024-03-23T04:45:57;5.4;96.0
22676;DHT22;12521;43.310;21.876;2024-03-23T04:50:34;5.4;96.0
22676;DHT22;12521;43.310;21.876;2024-03-23T04:55:11;5.4;96.0
22676;DHT22;12521;43.310;21.876;2024-03-23T04:59:49;5.4;96.0
22676;DHT22;12521;43.310;21.876;2024-03-23T05:32:05;5.5;96.0
22676;DHT22;12521;43.310;21.876;2024-03-23T05:36:41;5.5;96.0
22676;DHT22;12521;43.310;21.876;2024-03-23T05:41:18;5.5;96.0
22676;DHT22;12521;43.310;21.876;2024-03-23T05:45:56;5.5;96.0
22676;DHT22;12521;43.310;21.876;2024-03-23T05:50:34;5.5;96.0
22676;DHT22;12521;43.310;21.876;2024-03-23T05:55:11;5.5;96.0
22676;DHT22;12521;43.310;21.876;2024-03-23T05:59:48;5.5;96.0
22676;DHT22;12521;43.310;21.876;2024-03-23T06:13:38;6.3;96.0
22676;DHT22;12521;43.310;21.876;2024-03-23T06:18:15;6.3;96.0
22676;DHT22;12521;43.310;21.876;2024-03-23T06:22:52;6.3;96.0
22676;DHT22;12521;43.310;21.876;2024-03-23T06:27:28;6.3;96.0
22676;DHT22;12521;43.310;21.876;2024-03-23T06:32:06;6.6;96.0
22676;DHT22;12521;43.310;21.876;2024-03-23T06:36:43;6.6;96.0
22676;DHT22;12521;43.310;21.876;2024-03-23T06:41:20;6.6;96.0
22676;DHT22;12521;43.310;21.876;2024-03-23T06:45:58;6.8;96.0
22676;DHT22;12521;43.310;21.876;2024-03-23T06:50:35;6.8;96.0
22676;DHT22;12521;43.310;21.876;2024-03-23T06:55:12;7.0;96.0
22676;DHT22;12521;43.310;21.876;2024-03-23T06:59:49;7.0;96.0
22676;DHT22;12521;43.310;21.876;2024-03-23T07:04:26;7.2;96.0
22676;DHT22;12521;43.310;21.876;2024-03-23T07:09:03;7.2;96.0
22676;DHT22;12521;43.310;21.876;2024-03-23T07:13:40;7.2;96.0
22676;DHT22;12521;43.310;21.876;2024-03-23T07:18:16;7.2;96.0
22676;DHT22;12521;43.310;21.876;2024-03-23T07:55:12;9.7;96.0
22676;DHT22;12521;43.310;21.876;2024-03-23T07:59:49;9.7;96.0
22676;DHT22;12521;43.310;21.876;2024-03-23T08:04:27;9.7;96.0
22676;DHT22;12521;43.310;21.876;2024-03-23T08:09:04;9.7;96.0
22676;DHT22;12521;43.310;21.876;2024-03-23T08:13:45;10.1;96.0
22676;DHT22;12521;43.310;21.876;2024-03-23T08:18:22;10.1;96.0
22676;DHT22;12521;43.310;21.876;2024-03-23T08:22:59;10.5;96.0
22676;DHT22;12521;43.310;21.876;2024-03-23T08:27:36;10.5;96.0
22676;DHT22;12521;43.310;21.876;2024-03-23T08:32:12;10.5;96.0
22676;DHT22;12521;43.310;21.876;2024-03-23T08:36:50;10.5;96.0
22676;DHT22;12521;43.310;21.876;2024-03-23T08:41:27;10.5;96.0
22676;DHT22;12521;43.310;21.876;2024-03-23T09:13:50;13.1;96.0
22676;DHT22;12521;43.310;21.876;2024-03-23T09:18:27;13.1;96.0
22676;DHT22;12521;43.310;21.876;2024-03-23T09:23:04;13.1;96.0
22676;DHT22;12521;43.310;21.876;2024-03-23T09:27:41;13.1;96.0
22676;DHT22;12521;43.310;21.876;2024-03-23T09:32:18;13.5;96.0
22676;DHT22;12521;43.310;21.876;2024-03-23T09:36:55;13.5;96.0
22676;DHT22;12521;43.310;21.876;2024-03-23T09:41:32;13.5;96.0
22676;DHT22;12521;43.310;21.876;2024-03-23T09:46:09;13.9;96.0
22676;DHT22;12521;43.310;21.876;2024-03-23T09:50:46;13.9;96.0
22676;DHT22;12521;43.310;21.876;2024-03-23T09:55:23;13.9;96.0
22676;DHT22;12521;43.310;21.876;2024-03-23T10:00:00;13.9;96.0
22676;DHT22;12521;43.310;21.876;2024-03-23T10:32:38;16.9;87.0
22676;DHT22;12521;43.310;21.876;2024-03-23T10:37:16;16.9;87.0
22676;DHT22;12521;43.310;21.876;2024-03-23T10:42:00;16.9;87.0
22676;DHT22;12521;43.310;21.876;2024-03-23T10:46:38;16.9;87.0
22676;DHT22;12521;43.310;21.876;2024-03-23T10:51:16;16.9;87.0
22676;DHT22;12521;43.310;21.876;2024-03-23T10:55:56;16.9;87.0
22676;DHT22;12521;43.310;21.876;2024-03-23T11:00:34;16.9;87.0
22676;DHT22;12521;43.310;21.876;2024-03-23T11:52:46;19.9;79.0
22676;DHT22;12521;43.310;21.876;2024-03-23T11:57:23;19.9;79.0
22676;DHT22;12521;43.310;21.876;2024-03-23T12:02:07;19.9;79.0
22676;DHT22;12521;43.310;21.876;2024-03-23T12:06:44;19.9;79.0
22676;DHT22;12521;43.310;21.876;2024-03-23T12:11:21;19.9;79.0
22676;DHT22;12521;43.310;21.876;2024-03-23T12:16:17;20.2;78.0
22676;DHT22;12521;43.310;21.876;2024-03-23T12:20:54;20.2;78.0
22676;DHT22;12521;43.310;21.876;2024-03-23T12:25:31;20.5;78.0
22676;DHT22;12521;43.310;21.876;2024-03-23T12:30:12;20.5;78.0
22676;DHT22;12521;43.310;21.876;2024-03-23T12:34:49;20.5;78.0
22676;DHT22;12521;43.310;21.876;2024-03-23T12:39:27;20.5;78.0
22676;DHT22;12521;43.310;21.876;2024-03-23T13:53:16;22.2;72.0
22676;DHT22;12521;43.310;21.876;2024-03-23T13:57:54;22.2;72.0
22676;DHT22;12521;43.310;21.876;2024-03-23T14:02:31;22.2;72.0
22676;DHT22;12521;43.310;21.876;2024-03-23T14:07:08;22.2;72.0
22676;DHT22;12521;43.310;21.876;2024-03-23T14:11:45;22.2;72.0
22676;DHT22;12521;43.310;21.876;2024-03-23T14:16:22;22.2;72.0
22676;DHT22;12521;43.310;21.876;2024-03-23T14:21:02;22.2;72.0
22676;DHT22;12521;43.310;21.876;2024-03-23T15:16:23;21.5;70.0
22676;DHT22;12521;43.310;21.876;2024-03-23T15:21:04;21.5;70.0
22676;DHT22;12521;43.310;21.876;2024-03-23T15:25:41;21.5;70.0
22676;DHT22;12521;43.310;21.876;2024-03-23T15:30:18;21.5;70.0
22676;DHT22;12521;43.310;21.876;2024-03-23T15:34:55;21.5;70.0
22676;DHT22;12521;43.310;21.876;2024-03-23T15:39:32;21.5;70.0
22676;DHT22;12521;43.310;21.876;2024-03-23T16:53:32;18.2;77.0
22676;DHT22;12521;43.310;21.876;2024-03-23T16:58:09;18.2;77.0
22676;DHT22;12521;43.310;21.876;2024-03-23T17:02:47;18.2;77.0
22676;DHT22;12521;43.310;21.876;2024-03-23T17:07:24;18.2;77.0
22676;DHT22;12521;43.310;21.876;2024-03-23T17:12:00;18.2;77.0
22676;DHT22;12521;43.310;21.876;2024-03-23T17:16:37;18.2;77.0
22676;DHT22;12521;43.310;21.876;2024-03-23T17:21:14;18.2;77.0
22676;DHT22;12521;43.310;21.876;2024-03-23T18:16:44;16.2;82.0
22676;DHT22;12521;43.310;21.876;2024-03-23T18:21:21;16.2;82.0
22676;DHT22;12521;43.310;21.876;2024-03-23T18:25:58;16.2;82.0
22676;DHT22;12521;43.310;21.876;2024-03-23T18:30:34;16.2;82.0
22676;DHT22;12521;43.310;21.876;2024-03-23T18:35:11;16.2;82.0
22676;DHT22;12521;43.310;21.876;2024-03-23T18:39:48;16.2;82.0
22676;DHT22;12521;43.310;21.876;2024-03-23T19:53:38;15.2;88.0
22676;DHT22;12521;43.310;21.876;2024-03-23T19:58:15;15.2;88.0
22676;DHT22;12521;43.310;21.876;2024-03-23T20:02:52;15.2;88.0
22676;DHT22;12521;43.310;21.876;2024-03-23T20:07:29;15.2;88.0
22676;DHT22;12521;43.310;21.876;2024-03-23T20:12:09;15.2;88.0
22676;DHT22;12521;43.310;21.876;2024-03-23T20:16:46;15.2;88.0
22676;DHT22;12521;43.310;21.876;2024-03-23T20:21:22;15.2;88.0
22676;DHT22;12521;43.310;21.876;2024-03-23T20:35:14;14.8;90.0
22676;DHT22;12521;43.310;21.876;2024-03-23T20:39:51;14.8;90.0
22676;DHT22;12521;43.310;21.876;2024-03-23T20:44:28;14.8;90.0
22676;DHT22;12521;43.310;21.876;2024-03-23T20:49:05;14.8;90.0
22676;DHT22;12521;43.310;21.876;2024-03-23T20:53:42;14.8;90.0
22676;DHT22;12521;43.310;21.876;2024-03-23T20:58:20;14.8;90.0
22676;DHT22;12521;43.310;21.876;2024-03-23T21:16:46;14.6;91.0
22676;DHT22;12521;43.310;21.876;2024-03-23T21:21:23;14.6;91.0
22676;DHT22;12521;43.310;21.876;2024-03-23T21:26:04;14.6;91.0
22676;DHT22;12521;43.310;21.876;2024-03-23T21:30:41;14.6;91.0
22676;DHT22;12521;43.310;21.876;2024-03-23T21:35:18;14.6;91.0
22676;DHT22;12521;43.310;21.876;2024-03-23T21:39:54;14.6;91.0
22676;DHT22;12521;43.310;21.876;2024-03-23T21:44:31;14.6;92.0
22676;DHT22;12521;43.310;21.876;2024-03-23T21:49:08;14.6;92.0
22676;DHT22;12521;43.310;21.876;2024-03-23T21:53:45;14.6;92.0
22676;DHT22;12521;43.310;21.876;2024-03-23T21:58:26;14.6;92.0
22676;DHT22;12521;43.310;21.876;2024-03-23T22:35:32;14.4;94.0
22676;DHT22;12521;43.310;21.876;2024-03-23T22:40:12;14.4;94.0
22676;DHT22;12521;43.310;21.876;2024-03-23T22:44:49;14.4;94.0
22676;DHT22;12521;43.310;21.876;2024-03-23T22:49:26;14.4;94.0
22676;DHT22;12521;43.310;21.876;2024-03-23T22:54:03;14.4;94.0
22676;DHT22;12521;43.310;21.876;2024-03-23T22:58:40;14.4;94.0
22676;DHT22;12521;43.310;21.876;2024-03-23T23:03:21;14.3;95.0
22676;DHT22;12521;43.310;21.876;2024-03-23T23:07:57;14.3;95.0
22676;DHT22;12521;43.310;21.876;2024-03-23T23:12:34;14.3;95.0
22676;DHT22;12521;43.310;21.876;2024-03-23T23:17:11;14.3;95.0
22676;DHT22;12521;43.310;21.876;2024-03-23T23:21:48;14.3;95.0
22676;DHT22;12521;43.310;21.876;2024-03-23T23:54:06;13.8;96.0
22676;DHT22;12521;43.310;21.876;2024-03-23T23:58:42;13.8;96.0
